Lodi, New Jersey
Current Conditions -  °F | °C
As of 11:51 PM on Saturday 20 Dec 2014 (Local Time) from KTEB Reporting Station
Overcast Overcast  
Wind Chill: 32°   Ceiling: 2800
Heat Index: 32°   Visibility: 10mi
Dew Point: 21°   Wind: 3mph
Humidity: 64%   Direction: 350°N
Pressure: 30.29"   Gusts: NA
Location:  40.88°N, 74.08°W
Report Text: KTEB 210451Z 35003KT 10SM OVC028 00/M06 A3029 RMK AO2 SLP256 T00001061 400111006
Loading
Personal Weather Stations






























Interactive Weather Map New forecast layout! Learn more

10-Day Weather Forecast

Advertisements
Track Severe Weather on mobile